createdAt,value
2018-05-01T00:02:08.493Z,79.03
2018-05-01T00:04:36.567Z,78.82
2018-05-01T00:07:04.681Z,78.73
2018-05-01T00:09:32.773Z,78.33
2018-05-01T00:12:00.851Z,78.37
2018-05-01T00:14:28.927Z,78.47
2018-05-01T00:16:57.012Z,79.22
2018-05-01T00:19:25.320Z,78.80
2018-05-01T00:21:53.409Z,79.23
2018-05-01T00:24:21.490Z,78.81
2018-05-01T00:26:49.575Z,79.18
2018-05-01T00:29:17.951Z,79.62
2018-05-01T00:31:46.032Z,79.36
2018-05-01T00:34:14.115Z,78.98
2018-05-01T00:36:42.919Z,79.53
2018-05-01T00:39:11.001Z,79.86
2018-05-01T00:41:44.722Z,80.02
2018-05-01T00:44:18.259Z,80.18
2018-05-01T00:46:46.345Z,80.10
2018-05-01T00:49:14.440Z,79.65
2018-05-01T00:51:42.528Z,79.77
2018-05-01T00:54:10.592Z,79.67
2018-05-01T00:56:39.359Z,79.94
2018-05-01T00:59:07.525Z,80.47
2018-05-01T01:01:35.579Z,80.40
2018-05-01T01:13:48.947Z,80.91
2018-05-01T01:16:17.053Z,81.06
2018-05-01T01:18:45.129Z,81.37
2018-05-01T01:21:13.228Z,81.26
2018-05-01T01:23:41.307Z,81.44
2018-05-01T01:26:09.392Z,81.50
2018-05-01T01:28:37.474Z,81.36
2018-05-01T01:31:06.205Z,81.01
2018-05-01T01:33:34.287Z,80.62
2018-05-01T01:36:01.847Z,80.33
2018-05-01T01:38:29.416Z,80.11
2018-05-01T01:40:56.992Z,80.08
2018-05-01T01:43:24.597Z,80.39
2018-05-01T01:45:52.127Z,80.57
2018-05-01T01:48:19.667Z,80.20
2018-05-01T01:50:47.216Z,79.57
2018-05-01T01:53:14.767Z,79.66
2018-05-01T01:55:42.324Z,79.52
2018-05-01T01:58:09.953Z,79.91
2018-05-01T02:00:38.425Z,79.57
2018-05-01T02:03:05.977Z,79.77
2018-05-01T02:05:36.069Z,80.04
2018-05-01T02:08:03.621Z,80.11
2018-05-01T02:10:31.433Z,80.53
2018-05-01T02:12:59.375Z,79.54
2018-05-01T02:15:26.914Z,79.36
2018-05-01T02:17:54.458Z,79.00
2018-05-01T02:20:22.025Z,78.79
2018-05-01T02:22:49.571Z,78.66
2018-05-01T02:25:17.115Z,78.51
2018-05-01T02:27:44.684Z,78.78
2018-05-01T02:30:12.247Z,79.41
2018-05-01T02:32:39.916Z,79.08
2018-05-01T02:35:07.483Z,79.10
2018-05-01T02:37:35.023Z,79.33
2018-05-01T02:40:02.583Z,79.72
2018-05-01T02:42:30.135Z,79.52
2018-05-01T02:44:57.696Z,79.35
2018-05-01T02:47:25.238Z,79.29
2018-05-01T02:49:52.808Z,79.20
2018-05-01T02:52:20.428Z,79.54
2018-05-01T02:54:48.036Z,79.72
2018-05-01T02:57:15.608Z,79.27
2018-05-01T02:59:43.146Z,78.98
2018-05-01T03:02:10.700Z,79.14
2018-05-01T03:04:38.286Z,79.52
2018-05-01T03:07:05.841Z,79.39
2018-05-01T03:09:33.704Z,79.06
2018-05-01T03:12:06.198Z,79.08
2018-05-01T03:14:33.740Z,79.59
2018-05-01T03:17:01.337Z,79.69
2018-05-01T03:19:28.880Z,79.69
2018-05-01T03:21:56.434Z,80.03
2018-05-01T03:24:23.995Z,79.88
2018-05-01T03:26:51.850Z,79.50
2018-05-01T03:29:19.439Z,79.90
2018-05-01T03:31:46.971Z,80.17
2018-05-01T03:34:14.596Z,80.55
2018-05-01T03:36:42.140Z,80.28
2018-05-01T03:39:09.710Z,79.81
2018-05-01T03:41:37.267Z,79.40
2018-05-01T03:57:04.823Z,80.14
2018-05-01T03:59:33.227Z,79.90
2018-05-01T04:02:00.795Z,79.76
2018-05-01T04:04:28.361Z,79.31
2018-05-01T04:06:56.249Z,78.74
2018-05-01T04:09:23.789Z,79.54
2018-05-01T04:11:51.321Z,79.01
2018-05-01T04:14:19.746Z,79.40
2018-05-01T04:16:47.303Z,79.15
2018-05-01T04:19:14.863Z,79.49
2018-05-01T04:21:42.415Z,79.85
2018-05-01T04:24:09.985Z,79.64
2018-05-01T04:26:38.337Z,79.76
2018-05-01T04:29:05.883Z,80.38
2018-05-01T04:31:33.444Z,80.50
2018-05-01T04:34:00.983Z,80.65
2018-05-01T04:36:28.535Z,80.58
2018-05-01T04:38:56.099Z,80.44
2018-05-01T04:41:23.639Z,80.50
2018-05-01T04:43:51.205Z,80.34
2018-05-01T04:46:18.745Z,79.85
2018-05-01T04:48:46.293Z,80.02
2018-05-01T04:51:13.855Z,79.64
2018-05-01T04:53:41.427Z,79.78
2018-05-01T04:56:08.973Z,79.68
2018-05-01T04:58:36.777Z,78.86
2018-05-01T05:01:04.320Z,79.42
2018-05-01T05:03:32.591Z,79.52
2018-05-01T05:06:00.195Z,79.69
2018-05-01T05:08:27.829Z,80.04
2018-05-01T05:10:55.361Z,79.40
2018-05-01T05:13:22.928Z,79.67
2018-05-01T05:15:50.480Z,79.73
2018-05-01T05:18:18.011Z,79.24
2018-05-01T05:20:45.597Z,79.08
2018-05-01T05:23:13.159Z,79.25
2018-05-01T05:25:41.243Z,79.24
2018-05-01T05:28:08.819Z,78.76
2018-05-01T05:30:36.863Z,78.91
2018-05-01T05:33:04.415Z,78.81
2018-05-01T05:35:31.991Z,79.08
2018-05-01T05:37:59.540Z,79.03
2018-05-01T05:40:27.100Z,79.37
2018-05-01T05:42:54.656Z,79.35
2018-05-01T05:45:22.207Z,79.25
2018-05-01T05:47:50.276Z,79.44
2018-05-01T05:50:17.832Z,79.16
2018-05-01T05:52:45.419Z,78.61
2018-05-01T05:55:12.966Z,78.63
2018-05-01T05:57:40.507Z,78.13
2018-05-01T06:00:08.051Z,77.94
2018-05-01T06:02:35.597Z,77.86
2018-05-01T06:05:03.512Z,77.46
2018-05-01T06:07:31.087Z,77.13
2018-05-01T06:09:59.056Z,76.31
2018-05-01T06:12:26.630Z,76.58
2018-05-01T06:14:55.136Z,76.64
2018-05-01T06:17:22.677Z,75.99
2018-05-01T06:19:50.225Z,76.16
2018-05-01T06:22:17.805Z,75.98
2018-05-01T06:24:45.639Z,75.81
2018-05-01T06:40:14.222Z,75.39
2018-05-01T06:42:41.768Z,74.61
2018-05-01T06:45:09.317Z,74.53
2018-05-01T06:47:37.163Z,74.37
2018-05-01T06:50:05.552Z,74.35
2018-05-01T06:52:33.111Z,73.75
2018-05-01T06:55:00.701Z,73.24
2018-05-01T06:57:28.290Z,73.16
2018-05-01T06:59:55.895Z,72.52
2018-05-01T07:02:23.445Z,72.75
2018-05-01T07:04:51.832Z,72.67
2018-05-01T07:07:19.375Z,72.21
2018-05-01T07:09:46.929Z,71.98
2018-05-01T07:12:14.503Z,71.44
2018-05-01T07:14:42.057Z,71.17
2018-05-01T07:26:54.941Z,71.33
2018-05-01T07:29:22.458Z,71.36
2018-05-01T07:31:50.015Z,71.23
2018-05-01T07:34:18.509Z,70.36
2018-05-01T07:36:46.045Z,71.14
2018-05-01T07:39:13.601Z,71.07
2018-05-01T07:41:41.252Z,70.18
2018-05-01T07:44:14.115Z,69.32
2018-05-01T07:46:41.686Z,68.38
2018-05-01T07:49:09.306Z,68.29
2018-05-01T07:51:36.801Z,68.70
2018-05-01T07:54:04.359Z,67.76
2018-05-01T07:56:31.926Z,68.30
2018-05-01T07:59:01.697Z,66.18
2018-05-01T08:01:29.263Z,63.66
2018-05-01T08:03:57.634Z,64.39
2018-05-01T08:06:25.471Z,63.57
2018-05-01T08:08:53.202Z,63.08
2018-05-01T08:11:20.734Z,62.13
2018-05-01T08:13:48.601Z,61.37
2018-05-01T08:16:16.160Z,61.17
2018-05-01T08:18:43.756Z,60.95
2018-05-01T08:21:11.287Z,61.05
2018-05-01T08:23:38.917Z,58.40
2018-05-01T08:26:06.428Z,59.25
2018-05-01T08:28:33.980Z,59.09
2018-05-01T08:31:02.385Z,59.31
2018-05-01T08:33:29.943Z,60.00
2018-05-01T08:35:57.491Z,60.46
2018-05-01T08:38:25.509Z,59.82
2018-05-01T08:40:53.040Z,60.19
2018-05-01T08:43:20.591Z,60.47
2018-05-01T08:45:53.111Z,57.90
2018-05-01T08:48:20.752Z,58.70
2018-05-01T08:50:48.281Z,57.90
2018-05-01T08:53:16.225Z,57.91
2018-05-01T08:55:44.120Z,58.25
2018-05-01T08:58:12.484Z,57.75
2018-05-01T09:00:40.024Z,58.00
2018-05-01T09:03:07.596Z,57.24
2018-05-01T09:05:35.125Z,57.48
2018-05-01T09:08:02.694Z,56.65
2018-05-01T09:10:30.313Z,56.42
2018-05-01T09:12:57.869Z,56.67
2018-05-01T09:15:25.402Z,55.90
2018-05-01T09:17:52.998Z,55.92
2018-05-01T09:20:20.732Z,55.44
2018-05-01T09:22:48.259Z,54.90
2018-05-01T09:25:15.815Z,54.67
2018-05-01T09:27:43.443Z,54.11
2018-05-01T09:30:10.956Z,54.26
2018-05-01T09:32:38.869Z,54.62
2018-05-01T09:35:06.441Z,53.09
2018-05-01T09:37:34.720Z,53.48
2018-05-01T09:40:02.267Z,52.38
2018-05-01T09:42:29.845Z,52.83
2018-05-01T09:44:57.423Z,52.06
2018-05-01T09:47:25.049Z,53.21
2018-05-01T09:49:53.545Z,52.74
2018-05-01T09:52:21.979Z,52.11
2018-05-01T09:54:50.032Z,51.73
2018-05-01T09:57:19.087Z,50.70
2018-05-01T09:59:47.159Z,52.28
2018-05-01T10:02:20.229Z,52.31
2018-05-01T10:04:48.417Z,50.44
2018-05-01T10:07:16.495Z,50.61
2018-05-01T10:09:44.907Z,50.05
2018-05-01T10:12:13.858Z,48.22
2018-05-01T10:14:42.929Z,49.87
2018-05-01T10:17:11.016Z,51.85
2018-05-01T10:19:39.101Z,49.93
2018-05-01T10:22:08.100Z,49.91
2018-05-01T10:24:36.188Z,48.82
2018-05-01T10:27:04.269Z,49.26
2018-05-01T10:29:32.371Z,48.53
2018-05-01T10:32:06.163Z,50.43
2018-05-01T10:34:34.234Z,49.53
2018-05-01T10:37:02.601Z,49.63
2018-05-01T10:39:30.686Z,46.51
2018-05-01T10:41:58.766Z,46.65
2018-05-01T10:44:27.216Z,47.76
2018-05-01T10:46:55.342Z,48.17
2018-05-01T10:49:23.411Z,48.29
2018-05-01T10:51:51.495Z,47.48
2018-05-01T10:54:19.635Z,47.88
2018-05-01T10:56:47.761Z,46.55
2018-05-01T10:59:16.677Z,46.52
2018-05-01T11:01:45.354Z,46.19
2018-05-01T11:04:13.407Z,46.64
2018-05-01T11:06:41.508Z,45.80
2018-05-01T11:09:09.588Z,45.25
2018-05-01T11:11:37.674Z,45.26
2018-05-01T11:14:05.889Z,43.09
2018-05-01T11:16:33.983Z,46.33
2018-05-01T11:19:02.056Z,45.06
2018-05-01T11:21:30.403Z,43.73
2018-05-01T11:23:58.479Z,43.79
2018-05-01T11:26:26.554Z,44.80
2018-05-01T11:28:54.660Z,44.23
2018-05-01T11:31:23.565Z,44.30
2018-05-01T11:33:51.667Z,44.86
2018-05-01T11:36:20.063Z,43.83
2018-05-01T11:38:48.168Z,44.87
2018-05-01T11:41:16.264Z,45.20
2018-05-01T11:43:44.343Z,43.51
2018-05-01T11:46:12.434Z,43.34
2018-05-01T11:48:40.514Z,43.89
2018-05-01T11:51:09.584Z,44.56
2018-05-01T11:53:37.671Z,43.22
2018-05-01T11:56:06.062Z,43.54
2018-05-01T11:58:34.154Z,44.29
2018-05-01T12:01:02.522Z,43.95
2018-05-01T12:03:30.580Z,42.56
2018-05-01T12:05:58.716Z,44.25
2018-05-01T12:08:27.594Z,43.80
2018-05-01T12:10:55.701Z,44.93
2018-05-01T12:13:23.999Z,45.46
2018-05-01T12:15:52.049Z,44.06
2018-05-01T12:18:20.418Z,42.11
2018-05-01T12:20:48.499Z,40.92
2018-05-01T12:23:16.694Z,39.65
2018-05-01T12:25:44.815Z,40.71
2018-05-01T12:28:12.910Z,42.33
2018-05-01T12:30:40.994Z,43.07
2018-05-01T12:33:09.094Z,41.98
2018-05-01T12:35:37.174Z,41.39
2018-05-01T12:38:05.266Z,42.18
2018-05-01T12:40:33.352Z,43.13
2018-05-01T12:43:01.447Z,41.63
2018-05-01T12:45:29.686Z,41.40
2018-05-01T12:47:57.779Z,41.69
2018-05-01T12:50:25.865Z,41.20
2018-05-01T12:52:54.203Z,40.77
2018-05-01T12:55:23.174Z,40.26
2018-05-01T12:57:51.596Z,41.18
2018-05-01T13:00:19.732Z,40.90
2018-05-01T13:02:47.871Z,41.53
2018-05-01T13:05:16.223Z,40.68
2018-05-01T13:07:44.314Z,40.70
2018-05-01T13:10:12.432Z,42.22
2018-05-01T13:12:40.524Z,42.04
2018-05-01T13:15:14.996Z,42.22
2018-05-01T13:17:43.082Z,43.33
2018-05-01T13:20:11.243Z,43.25
2018-05-01T13:22:39.348Z,43.91
2018-05-01T13:25:07.430Z,43.42
2018-05-01T13:27:35.514Z,45.21
2018-05-01T13:30:03.657Z,44.73
2018-05-01T13:32:31.823Z,43.93
2018-05-01T13:34:59.848Z,44.21
2018-05-01T13:37:27.954Z,43.14
2018-05-01T13:39:56.081Z,43.69
2018-05-01T13:42:25.034Z,43.90
2018-05-01T13:44:53.144Z,42.91
2018-05-01T13:47:21.222Z,43.30
2018-05-01T13:49:49.302Z,43.96
2018-05-01T13:52:17.426Z,44.06
2018-05-01T13:54:46.074Z,43.68
2018-05-01T13:57:14.323Z,43.08
2018-05-01T13:59:42.351Z,44.12
2018-05-01T14:02:10.440Z,43.26
2018-05-01T14:04:39.214Z,41.51
2018-05-01T14:07:07.448Z,40.28
2018-05-01T14:09:35.508Z,40.68
2018-05-01T14:12:03.599Z,40.68
2018-05-01T14:14:32.288Z,39.11
2018-05-01T14:17:00.378Z,40.98
2018-05-01T14:19:28.489Z,38.95
2018-05-01T14:21:56.588Z,38.09
2018-05-01T14:24:25.458Z,38.72
2018-05-01T14:26:53.547Z,39.45
2018-05-01T14:29:21.662Z,39.95
2018-05-01T14:31:49.757Z,40.50
2018-05-01T14:34:17.882Z,39.23
2018-05-01T14:36:45.954Z,39.00
2018-05-01T14:39:14.055Z,37.19
2018-05-01T14:41:42.145Z,36.82
2018-05-01T14:44:10.219Z,36.19
2018-05-01T14:46:38.789Z,35.76
2018-05-01T14:49:12.776Z,36.07
2018-05-01T14:51:41.163Z,33.51
2018-05-01T14:54:09.565Z,33.60
2018-05-01T14:56:38.228Z,34.74
2018-05-01T14:59:06.939Z,31.14
2018-05-01T15:01:35.079Z,29.06
2018-05-01T15:04:03.139Z,30.26
2018-05-01T15:06:31.240Z,27.62
2018-05-01T15:08:59.457Z,27.07
2018-05-01T15:11:27.467Z,24.29
2018-05-01T15:13:55.582Z,25.00
2018-05-01T15:16:23.708Z,25.07
2018-05-01T15:18:52.131Z,26.36
2018-05-01T15:21:20.211Z,23.40
2018-05-01T15:23:48.290Z,23.57
2018-05-01T15:26:16.364Z,23.28
2018-05-01T15:28:44.818Z,23.87
2018-05-01T15:31:12.954Z,24.18
2018-05-01T15:33:41.011Z,22.24
2018-05-01T15:36:09.985Z,22.28
2018-05-01T15:38:38.059Z,21.73
2018-05-01T15:41:06.143Z,18.93
2018-05-01T15:43:34.252Z,16.57
2018-05-01T15:46:02.333Z,17.82
2018-05-01T15:48:30.623Z,20.16
2018-05-01T15:50:58.842Z,22.82
2018-05-01T15:53:26.879Z,21.06
2018-05-01T15:55:55.001Z,21.86
2018-05-01T15:58:24.004Z,24.23
2018-05-01T16:00:52.105Z,26.16
2018-05-01T16:03:20.186Z,27.25
2018-05-01T16:05:48.263Z,27.90
2018-05-01T16:08:16.367Z,28.11
2018-05-01T16:10:44.625Z,28.21
2018-05-01T16:13:12.699Z,29.87
2018-05-01T16:15:40.799Z,30.55
2018-05-01T16:18:09.815Z,31.54
2018-05-01T16:20:38.763Z,32.48
2018-05-01T16:23:07.879Z,33.63
2018-05-01T16:25:42.179Z,34.32
2018-05-01T16:28:10.255Z,34.83
2018-05-01T16:30:38.371Z,34.54
2018-05-01T16:33:06.489Z,34.87
2018-05-01T16:35:40.348Z,35.11
2018-05-01T16:38:14.031Z,35.13
2018-05-01T16:40:42.159Z,35.73
2018-05-01T16:43:10.272Z,36.23
2018-05-01T16:45:38.459Z,37.30
2018-05-01T16:48:06.914Z,36.93
2018-05-01T16:50:34.983Z,37.18
2018-05-01T16:53:03.828Z,38.22
2018-05-01T16:55:32.025Z,38.27
2018-05-01T16:58:00.192Z,38.78
2018-05-01T17:00:29.293Z,38.10
2018-05-01T17:02:57.393Z,38.59
2018-05-01T17:05:25.475Z,38.50
2018-05-01T17:07:53.563Z,39.18
2018-05-01T17:10:23.203Z,39.56
2018-05-01T17:12:51.372Z,38.81
2018-05-01T17:15:19.451Z,39.47
2018-05-01T17:17:48.081Z,39.64
2018-05-01T17:20:16.254Z,39.72
2018-05-01T17:22:44.343Z,39.74
2018-05-01T17:25:12.454Z,40.43
2018-05-01T17:27:40.545Z,40.61
2018-05-01T17:30:08.628Z,40.43
2018-05-01T17:32:37.021Z,41.08
2018-05-01T17:35:05.109Z,40.73
2018-05-01T17:37:33.198Z,41.05
2018-05-01T17:40:01.340Z,41.17
2018-05-01T17:42:29.475Z,41.79
2018-05-01T17:44:57.540Z,41.42
2018-05-01T17:47:25.620Z,41.24
2018-05-01T17:49:53.728Z,42.83
2018-05-01T17:52:22.698Z,42.46
2018-05-01T17:54:51.060Z,42.86
2018-05-01T17:57:19.413Z,42.94
2018-05-01T17:59:48.016Z,43.33
2018-05-01T18:02:16.096Z,42.16
2018-05-01T18:04:44.199Z,43.34
2018-05-01T18:07:12.284Z,43.23
2018-05-01T18:09:40.396Z,45.12
2018-05-01T18:12:08.681Z,43.34
2018-05-01T18:14:36.739Z,43.52
2018-05-01T18:17:04.820Z,44.78
2018-05-01T18:19:33.300Z,45.51
2018-05-01T18:22:01.356Z,44.06
2018-05-01T18:24:29.442Z,43.73
2018-05-01T18:26:57.843Z,44.72
2018-05-01T18:29:25.924Z,43.85
2018-05-01T18:31:54.079Z,44.58
2018-05-01T18:34:23.256Z,43.71
2018-05-01T18:36:51.335Z,43.59
2018-05-01T18:39:19.423Z,44.43
2018-05-01T18:41:47.520Z,44.56
2018-05-01T18:44:15.697Z,43.85
2018-05-01T18:46:43.784Z,44.37
2018-05-01T18:49:11.855Z,44.53
2018-05-01T18:51:39.946Z,44.74
2018-05-01T18:54:08.024Z,46.92
2018-05-01T18:56:36.116Z,45.25
2018-05-01T18:59:04.278Z,45.65
2018-05-01T19:01:32.438Z,47.18
2018-05-01T19:04:00.529Z,45.63
2018-05-01T19:06:28.613Z,45.38
2018-05-01T19:08:56.792Z,45.42
2018-05-01T19:11:25.823Z,45.53
2018-05-01T19:13:53.903Z,45.74
2018-05-01T19:16:22.009Z,46.95
2018-05-01T19:18:50.293Z,46.94
2018-05-01T19:21:18.357Z,47.49
2018-05-01T19:23:46.473Z,47.42
2018-05-01T19:26:14.563Z,47.76
2018-05-01T19:28:42.674Z,47.95
2018-05-01T19:31:11.291Z,47.87
2018-05-01T19:33:39.375Z,49.38
2018-05-01T19:36:07.459Z,50.49
2018-05-01T19:38:35.619Z,49.10
2018-05-01T19:41:03.711Z,49.66
2018-05-01T19:43:31.787Z,51.21
2018-05-01T19:45:59.952Z,50.18
2018-05-01T19:48:28.819Z,50.65
2018-05-01T19:50:56.956Z,51.03
2018-05-01T19:53:25.138Z,51.00
2018-05-01T19:55:53.215Z,51.57
2018-05-01T19:58:21.287Z,51.69
2018-05-01T20:00:49.414Z,51.98
2018-05-01T20:03:17.843Z,52.16
2018-05-01T20:05:46.499Z,53.42
2018-05-01T20:08:15.556Z,52.88
2018-05-01T20:10:43.671Z,53.27
2018-05-01T20:13:12.615Z,54.39
2018-05-01T20:28:40.779Z,55.23
2018-05-01T20:31:08.866Z,54.99
2018-05-01T20:33:37.016Z,55.07
2018-05-01T20:36:05.138Z,56.12
2018-05-01T20:38:33.260Z,55.82
2018-05-01T20:41:01.378Z,57.52
2018-05-01T20:43:29.460Z,55.69
2018-05-01T20:45:59.208Z,56.62
2018-05-01T20:48:27.309Z,56.38
2018-05-01T20:50:55.394Z,57.22
2018-05-01T20:53:23.526Z,56.57
2018-05-01T20:55:51.619Z,55.68
2018-05-01T20:58:19.724Z,55.24
2018-05-01T21:00:47.812Z,56.04
2018-05-01T21:16:15.974Z,57.07
2018-05-01T21:18:44.995Z,56.77
2018-05-01T21:21:14.936Z,56.69
2018-05-01T21:23:43.017Z,57.14
2018-05-01T21:26:11.448Z,57.16
2018-05-01T21:28:45.853Z,57.48
2018-05-01T21:31:14.250Z,57.29
2018-05-01T21:33:42.315Z,57.44
2018-05-01T21:36:10.396Z,57.17
2018-05-01T21:38:38.487Z,57.35
2018-05-01T21:41:07.070Z,57.58
2018-05-01T21:43:35.164Z,57.57
2018-05-01T21:46:03.595Z,57.83
2018-05-01T21:48:31.662Z,58.04
2018-05-01T21:51:00.702Z,57.65
2018-05-01T21:53:29.086Z,57.99
2018-05-01T21:55:57.183Z,57.71
2018-05-01T21:58:25.271Z,58.23
2018-05-01T22:00:53.347Z,58.08
2018-05-01T22:03:21.436Z,58.49
2018-05-01T22:05:49.544Z,58.58
2018-05-01T22:08:17.930Z,58.78
2018-05-01T22:10:46.058Z,58.97
2018-05-01T22:13:14.136Z,59.53
2018-05-01T22:15:42.928Z,59.48
2018-05-01T22:18:11.032Z,59.99
2018-05-01T22:20:39.163Z,60.33
2018-05-01T22:23:08.188Z,61.14
2018-05-01T22:25:36.532Z,60.32
2018-05-01T22:28:04.616Z,60.75
2018-05-01T22:30:32.716Z,61.25
2018-05-01T22:33:00.800Z,61.75
2018-05-01T22:35:35.268Z,61.16
2018-05-01T22:38:03.371Z,61.64
2018-05-01T22:40:31.486Z,61.47
2018-05-01T22:42:59.545Z,61.22
2018-05-01T22:45:27.652Z,61.55
2018-05-01T22:47:55.742Z,61.82
2018-05-01T22:50:28.875Z,61.83
2018-05-01T22:52:56.950Z,61.72
2018-05-01T22:55:25.874Z,61.06
2018-05-01T22:57:54.468Z,61.31
2018-05-01T23:00:23.354Z,61.54
2018-05-01T23:02:51.452Z,61.41
2018-05-01T23:05:19.526Z,62.34
2018-05-01T23:07:53.346Z,61.88
2018-05-01T23:10:21.416Z,62.36
2018-05-01T23:12:49.493Z,61.98
2018-05-01T23:15:17.593Z,62.25
2018-05-01T23:17:46.494Z,62.62
2018-05-01T23:20:14.582Z,62.98
2018-05-01T23:22:42.890Z,63.75
2018-05-01T23:25:10.960Z,63.79
2018-05-01T23:27:39.048Z,63.73
2018-05-01T23:30:07.140Z,63.99
2018-05-01T23:32:40.168Z,64.19
2018-05-01T23:35:08.255Z,64.34
2018-05-01T23:37:36.362Z,64.45
2018-05-01T23:40:04.457Z,64.10
2018-05-01T23:45:02.633Z,63.59
2018-05-01T23:47:30.729Z,64.13
2018-05-01T23:49:58.818Z,63.92
2018-05-01T23:52:26.918Z,64.17
2018-05-01T23:54:54.990Z,64.01
2018-05-01T23:57:23.075Z,64.00
2018-05-01T23:59:51.178Z,63.81
